Gualala, CA

5:16 AM PST on January 28, 2015 (GMT -0800)
Ocean Ridge | Change Station
CLOSE
Current Station
Personal Weather Station
Location: Gualala, CA
Elevation: 900 ft
Nearby Weather Stations

Elev 900 ft 38.80 °N, 123.53 °W | Updated 52 seconds ago

Mostly Cloudy
Mostly Cloudy
49.3 °F
Feels Like 49 °F
N
0.0
Wind Variable Wind from North
Gusts 0.0 mph

Today
High -- | Low -- °F
--% Chance of Precip.
Yesterday
High -- | Low -- °F
Precip. -- in
7:23 AM 5:31 PM
Waxing Gibbous, 64% visible
Pressure 30.26 in
Visibility 10.0 miles
Clouds Overcast 12000 ft
Windchill 49 °F
Dew Point 42 °F
Humidity 75%
Rainfall 0.00 in
Snow Depth Not available.
UV 0 out of 12
Pollen 5.80 out of 12
Air Quality Not available.
Flu Activity Not available.
METAR KUKI 281256Z AUTO 00000KT 10SM OVC120 08/06 A3027 RMK AO2 SLP247 T00780061

More Conditions Fewer Conditions

Pressure 30.26 in
Visibility 10.0 miles
Clouds Overcast 12000 ft
Windchill 49 °F
Dew Point 42 °F
Humidity 75%
Rainfall 0.00 in
Snow Depth Not available.
UV 0 out of 12
Pollen 5.80 out of 12
Air Quality Not available.
Flu Activity Not available.
METAR KUKI 281256Z AUTO 00000KT 10SM OVC120 08/06 A3027 RMK AO2 SLP247 T00780061

More Conditions Fewer Conditions

10-Day Weather Forecast

Almanac

Astronomy

Jan. 28, 2015 Rise Set
Actual Time
Civil Twilight
Nautical Twilight
Astronomical Twilight
Moon
Length of Visible Light
Length of Day
Tomorrow will be .
, % of the Moon is Illuminated

Today's Extremes

State Highs State Lows

Community

WunderPhotos

Upload Photos

1,791,136 photos uploaded!

WunderBlogs® & News

Nearby

Air Quality

  Air Quality AQ Index Pollutant
Not available.

Snow Depth

Station Depth Elevation

Earthquake Activity

City Distance Mag. Time & Date
Minimum magnitude displayed is 2.5.

Coastal Water Temperatures

Place Temperature

Nearby Weather Stations